Time;durP1;ratioP1;P1;durP2;ratioP2;P2;SDS_P1;SDS_P2;PMS_P1;PMS_P2;Temp;Humidity;BMP_temperature;BMP_pressure;BME280_temperature;BME280_humidity;BME280_pressure;Samples;Min_cycle;Max_cycle;Signal;HPM_P1;HPM_P2
2022/08/26 00:00:30;;;;;;;4.47;4.17;;;19.50;99.90;;;;;;5090178;28;20436;-51
2022/08/26 00:02:58;;;;;;;4.43;4.13;;;19.50;99.90;;;;;;5090465;28;20874;-49
2022/08/26 00:05:26;;;;;;;4.43;4.03;;;19.20;99.90;;;;;;5090661;28;20475;-50
2022/08/26 00:07:53;;;;;;;4.50;4.20;;;18.90;99.90;;;;;;5090764;28;20968;-50
2022/08/26 00:10:21;;;;;;;5.23;4.73;;;18.90;99.90;;;;;;5090051;28;20493;-49
2022/08/26 00:12:47;;;;;;;4.97;4.30;;;18.80;99.90;;;;;;5091031;28;20497;-49
2022/08/26 00:15:19;;;;;;;4.50;4.10;;;18.80;99.90;;;;;;5090672;28;20500;-49
2022/08/26 00:17:47;;;;;;;5.00;4.60;;;18.90;99.90;;;;;;5089876;28;20467;-50
2022/08/26 00:20:19;;;;;;;4.60;4.20;;;19.00;99.90;;;;;;5089885;28;20785;-50
2022/08/26 00:22:46;;;;;;;5.10;4.60;;;19.10;99.90;;;;;;5090327;28;20436;-50
2022/08/26 00:25:15;;;;;;;6.40;4.23;;;19.10;99.90;;;;;;5090410;28;20876;-49
2022/08/26 00:27:42;;;;;;;5.13;4.73;;;18.90;99.90;;;;;;5090580;28;20467;-49
2022/08/26 00:30:13;;;;;;;5.30;4.40;;;19.00;99.90;;;;;;5089562;28;20454;-49
2022/08/26 00:32:41;;;;;;;5.37;4.87;;;18.70;99.90;;;;;;5090474;28;20440;-49
2022/08/26 00:35:10;;;;;;;4.70;4.30;;;18.60;99.90;;;;;;5090310;28;20443;-51
2022/08/26 00:37:37;;;;;;;6.40;4.70;;;18.60;99.90;;;;;;5090144;28;20218;-49
2022/08/26 00:40:05;;;;;;;6.73;4.53;;;18.70;99.90;;;;;;5089075;28;20444;-50
2022/08/26 00:42:32;;;;;;;5.10;4.60;;;18.60;99.90;;;;;;5090211;28;20432;-49
2022/08/26 00:44:59;;;;;;;4.73;4.33;;;18.80;99.90;;;;;;5090136;28;20936;-51
2022/08/26 00:47:32;;;;;;;4.53;4.13;;;18.90;99.90;;;;;;5090136;28;20828;-49
2022/08/26 00:50:04;;;;;;;4.60;4.20;;;18.80;99.90;;;;;;5089760;28;20443;-49
2022/08/26 00:52:31;;;;;;;4.75;4.35;;;18.60;99.90;;;;;;5088505;28;20890;-50
2022/08/26 00:55:05;;;;;;;4.83;3.93;;;18.80;99.90;;;;;;5090046;28;20205;-49
2022/08/26 00:57:34;;;;;;;4.70;4.27;;;18.70;99.90;;;;;;5089382;28;20447;-50
2022/08/26 01:00:08;;;;;;;5.20;4.70;;;18.60;99.90;;;;;;5089235;28;20435;-50
2022/08/26 01:02:35;;;;;;;4.90;4.40;;;18.50;99.90;;;;;;5090040;28;20454;-51
2022/08/26 01:05:06;;;;;;;4.73;4.30;;;18.30;99.90;;;;;;5089816;28;20447;-49
2022/08/26 01:07:35;;;;;;;4.87;4.40;;;18.30;99.90;;;;;;5090031;28;20531;-51
2022/08/26 01:10:06;;;;;;;5.17;4.77;;;18.20;99.90;;;;;;5089252;28;20484;-49
2022/08/26 01:12:37;;;;;;;4.63;4.23;;;18.20;99.90;;;;;;5089859;28;20448;-51
2022/08/26 01:15:06;;;;;;;4.70;4.30;;;18.30;99.90;;;;;;5090017;28;20534;-51
2022/08/26 01:17:33;;;;;;;6.83;4.50;;;18.10;99.90;;;;;;5089327;28;21022;-51
2022/08/26 01:20:08;;;;;;;5.30;4.80;;;18.20;99.90;;;;;;5089211;28;20479;-50
2022/08/26 01:22:46;;;;;;;4.60;4.20;;;18.20;99.90;;;;;;5089693;28;20435;-51
2022/08/26 01:25:14;;;;;;;4.80;3.90;;;18.00;99.90;;;;;;5089686;28;20450;-50
2022/08/26 01:27:42;;;;;;;4.47;4.07;;;18.40;99.90;;;;;;5089634;28;20312;-50
2022/08/26 01:30:10;;;;;;;5.70;5.20;;;18.10;99.90;;;;;;5089379;28;20969;-50
2022/08/26 01:32:39;;;;;;;4.65;4.25;;;18.30;99.90;;;;;;5089590;28;20546;-50
2022/08/26 01:35:08;;;;;;;4.67;4.27;;;18.50;99.90;;;;;;5089582;28;20195;-50
2022/08/26 01:37:37;;;;;;;5.03;4.60;;;18.80;99.90;;;;;;5089446;28;20467;-50
2022/08/26 01:40:09;;;;;;;5.07;4.37;;;18.60;99.90;;;;;;5088910;28;20205;-50
2022/08/26 01:42:36;;;;;;;4.82;4.43;;;18.50;99.90;;;;;;5089824;28;20451;-50
2022/08/26 01:45:09;;;;;;;4.83;4.43;;;18.10;99.90;;;;;;5089680;28;20267;-50
2022/08/26 01:47:38;;;;;;;4.80;4.40;;;18.20;99.90;;;;;;5089391;28;20552;-50
2022/08/26 01:50:10;;;;;;;4.77;4.37;;;18.30;99.90;;;;;;5088785;28;20443;-50
2022/08/26 01:52:41;;;;;;;5.23;4.80;;;18.10;99.90;;;;;;5088708;28;20420;-50
2022/08/26 01:55:12;;;;;;;5.03;4.63;;;18.20;99.90;;;;;;5093417;28;20444;-50
2022/08/26 01:57:39;;;;;;;6.33;4.60;;;18.00;99.90;;;;;;5093005;28;20826;-50
2022/08/26 02:00:09;;;;;;;4.97;4.57;;;18.10;99.90;;;;;;5092541;28;20466;-51
2022/08/26 02:02:36;;;;;;;5.10;4.60;;;18.10;99.90;;;;;;5093039;28;20489;-50
2022/08/26 02:05:06;;;;;;;5.13;4.60;;;18.40;99.90;;;;;;5093060;28;20443;-50
2022/08/26 02:07:33;;;;;;;7.23;4.80;;;18.40;99.90;;;;;;5092752;28;20558;-50
2022/08/26 02:10:00;;;;;;;5.27;4.30;;;18.20;99.90;;;;;;5092342;28;20479;-50
2022/08/26 02:12:30;;;;;;;3.90;3.60;;;18.40;99.90;;;;;;5092981;28;20500;-50
2022/08/26 02:15:01;;;;;;;4.70;4.30;;;18.30;99.90;;;;;;5092947;28;20572;-51
2022/08/26 02:17:33;;;;;;;4.53;4.13;;;18.30;99.90;;;;;;5092292;28;20498;-50
2022/08/26 02:20:00;;;;;;;4.50;4.17;;;18.20;99.90;;;;;;5092295;28;20448;-50
2022/08/26 02:22:30;;;;;;;5.00;4.30;;;17.90;99.90;;;;;;5092431;28;20447;-50
2022/08/26 02:25:00;;;;;;;4.67;4.27;;;18.00;99.90;;;;;;5092721;28;20504;-51
2022/08/26 02:27:31;;;;;;;4.70;4.30;;;18.20;99.90;;;;;;5092754;28;20475;-49
2022/08/26 02:30:01;;;;;;;4.90;4.20;;;18.00;99.90;;;;;;5092007;28;20802;-49
2022/08/26 02:32:28;;;;;;;5.83;4.83;;;17.90;99.90;;;;;;5092698;28;20505;-49
2022/08/26 02:34:55;;;;;;;5.67;5.20;;;17.90;99.90;;;;;;5092665;28;20500;-49
2022/08/26 02:37:22;;;;;;;5.00;4.22;;;17.40;99.90;;;;;;5092944;28;20536;-49
2022/08/26 02:39:49;;;;;;;4.30;3.90;;;17.40;99.90;;;;;;5091854;28;20252;-50
2022/08/26 02:42:16;;;;;;;4.60;4.20;;;17.20;99.90;;;;;;5092408;28;20508;-50
2022/08/26 02:44:44;;;;;;;4.73;4.27;;;17.30;99.90;;;;;;5092526;28;20477;-49
2022/08/26 02:47:14;;;;;;;5.13;4.63;;;17.40;99.90;;;;;;5092102;28;20471;-50
2022/08/26 02:49:43;;;;;;;4.70;4.30;;;17.50;99.90;;;;;;5092141;28;20493;-49
2022/08/26 02:52:10;;;;;;;4.57;4.20;;;17.40;99.90;;;;;;5090450;28;20428;-49
2022/08/26 02:54:38;;;;;;;4.97;4.47;;;17.50;99.90;;;;;;5092483;28;20448;-50
2022/08/26 02:57:05;;;;;;;6.83;6.20;;;17.70;99.90;;;;;;5091610;28;20996;-50
2022/08/26 02:59:34;;;;;;;5.40;5.00;;;17.70;99.90;;;;;;5091524;28;20482;-49
2022/08/26 03:02:03;;;;;;;6.23;4.20;;;17.80;99.90;;;;;;5091852;28;20667;-51
2022/08/26 03:04:31;;;;;;;5.00;4.43;;;17.90;99.90;;;;;;5091736;28;20443;-49
2022/08/26 03:06:58;;;;;;;5.40;4.35;;;17.60;99.90;;;;;;5091664;28;20474;-50
2022/08/26 03:09:25;;;;;;;5.50;4.37;;;17.30;99.90;;;;;;5091430;28;20206;-49
2022/08/26 03:11:54;;;;;;;5.30;4.80;;;17.20;99.90;;;;;;5091875;28;20482;-50
2022/08/26 03:14:22;;;;;;;6.23;5.03;;;17.30;99.90;;;;;;5092122;28;20206;-50
2022/08/26 03:16:51;;;;;;;7.47;5.40;;;17.10;99.90;;;;;;5090915;28;20467;-50
2022/08/26 03:19:20;;;;;;;5.50;5.00;;;17.10;99.90;;;;;;5091110;28;20448;-49
2022/08/26 03:21:47;;;;;;;4.50;4.10;;;17.20;99.90;;;;;;5091670;28;20425;-49
2022/08/26 03:24:16;;;;;;;6.13;3.90;;;17.20;99.90;;;;;;5091750;28;20505;-49
2022/08/26 03:26:43;;;;;;;4.70;4.30;;;17.30;99.90;;;;;;5091293;28;20481;-49
2022/08/26 03:31:54;;;;;;;5.20;4.80;;;17.10;99.90;;;;;;5091552;28;20419;-50
2022/08/26 03:34:23;;;;;;;4.87;4.47;;;17.00;99.90;;;;;;5091546;28;20444;-49
2022/08/26 03:36:50;;;;;;;5.03;4.63;;;17.20;99.90;;;;;;5091336;28;20471;-51
2022/08/26 03:39:17;;;;;;;4.50;4.05;;;17.20;99.90;;;;;;5090529;28;20432;-51
2022/08/26 03:41:44;;;;;;;4.93;4.53;;;17.50;99.90;;;;;;5091687;28;20235;-51
2022/08/26 03:44:12;;;;;;;5.87;5.10;;;17.30;99.90;;;;;;5091162;28;20521;-51
2022/08/26 03:46:40;;;;;;;4.47;4.17;;;17.10;99.90;;;;;;5091095;28;20467;-50
2022/08/26 03:49:07;;;;;;;4.93;4.43;;;17.30;99.90;;;;;;5090299;28;20522;-50
2022/08/26 03:51:37;;;;;;;5.20;4.77;;;17.10;99.90;;;;;;5090931;28;20194;-50
2022/08/26 03:54:04;;;;;;;5.93;5.07;;;17.50;99.90;;;;;;5089242;28;20508;-49
2022/08/26 03:56:32;;;;;;;4.43;4.07;;;17.80;99.90;;;;;;5091185;28;20871;-51
2022/08/26 03:58:59;;;;;;;6.53;4.10;;;18.00;99.90;;;;;;5089666;28;20255;-51
2022/08/26 04:01:27;;;;;;;5.10;4.70;;;18.00;99.90;;;;;;5090713;28;20198;-49
2022/08/26 04:04:00;;;;;;;4.07;3.77;;;17.90;99.90;;;;;;5090614;28;21017;-50
2022/08/26 04:06:29;;;;;;;5.20;4.70;;;17.70;99.90;;;;;;5090667;28;20554;-50
2022/08/26 04:09:00;;;;;;;5.10;4.13;;;17.50;99.90;;;;;;5090177;28;21046;-49
2022/08/26 04:11:30;;;;;;;5.30;4.73;;;17.10;99.90;;;;;;5090724;28;20459;-51
2022/08/26 04:13:59;;;;;;;5.07;4.67;;;16.90;99.90;;;;;;5090957;28;20438;-49
2022/08/26 04:16:28;;;;;;;5.00;4.60;;;17.00;99.90;;;;;;5091185;28;20467;-50
2022/08/26 04:18:55;;;;;;;4.53;4.13;;;16.80;99.90;;;;;;5089430;28;20825;-49
2022/08/26 04:21:23;;;;;;;5.17;4.50;;;16.90;99.90;;;;;;5090395;28;20465;-49
2022/08/26 04:23:51;;;;;;;4.97;4.53;;;17.10;99.90;;;;;;5090816;28;20436;-50
2022/08/26 04:26:21;;;;;;;6.70;5.00;;;17.20;99.90;;;;;;5090394;28;20521;-49
2022/08/26 04:28:49;;;;;;;4.90;3.90;;;17.00;99.90;;;;;;5089826;28;20864;-50
2022/08/26 04:31:18;;;;;;;5.90;4.43;;;16.90;99.90;;;;;;5090559;28;20439;-50
2022/08/26 04:33:47;;;;;;;7.33;4.63;;;16.90;99.90;;;;;;5090398;28;20525;-49
2022/08/26 04:36:14;;;;;;;6.17;5.57;;;16.90;99.90;;;;;;5090276;28;20520;-49
2022/08/26 04:38:41;;;;;;;5.00;4.60;;;17.10;99.90;;;;;;5089906;28;20444;-50
2022/08/26 04:41:10;;;;;;;4.53;4.13;;;17.20;99.90;;;;;;5090132;28;20497;-49
2022/08/26 04:43:38;;;;;;;5.63;4.60;;;17.30;99.90;;;;;;5090171;28;20483;-50
2022/08/26 04:46:06;;;;;;;4.20;3.80;;;17.50;99.90;;;;;;5090081;28;20480;-50
2022/08/26 04:48:34;;;;;;;4.40;4.03;;;17.80;99.90;;;;;;5089823;28;20555;-49
2022/08/26 04:51:01;;;;;;;4.90;4.30;;;17.90;99.90;;;;;;5089673;28;20258;-49
2022/08/26 04:53:29;;;;;;;5.00;4.50;;;17.80;99.90;;;;;;5088482;28;20454;-50
2022/08/26 04:55:56;;;;;;;4.80;4.40;;;17.90;99.90;;;;;;5090119;28;20439;-49
2022/08/26 04:58:24;;;;;;;5.57;5.07;;;17.70;99.90;;;;;;5089521;28;20489;-49
2022/08/26 05:00:55;;;;;;;4.90;4.47;;;17.20;99.90;;;;;;5089136;28;20432;-50
2022/08/26 05:03:23;;;;;;;4.93;4.47;;;16.90;99.90;;;;;;5089704;28;20440;-49
2022/08/26 05:05:51;;;;;;;4.40;4.00;;;17.00;99.90;;;;;;5089986;28;20538;-49
2022/08/26 05:08:20;;;;;;;5.30;4.80;;;16.90;99.90;;;;;;5090017;28;20475;-49
2022/08/26 05:10:49;;;;;;;4.50;4.10;;;17.00;99.90;;;;;;5089341;28;20843;-49
2022/08/26 05:13:20;;;;;;;5.10;4.70;;;16.90;99.90;;;;;;5089642;28;20447;-49
2022/08/26 05:15:48;;;;;;;6.73;4.37;;;17.00;99.90;;;;;;5089737;28;20197;-49
2022/08/26 05:18:20;;;;;;;4.73;4.33;;;17.10;99.90;;;;;;5088881;28;20443;-49
2022/08/26 05:20:48;;;;;;;4.40;4.00;;;17.10;99.90;;;;;;5088943;28;20957;-49
2022/08/26 05:23:16;;;;;;;5.57;4.97;;;17.20;99.90;;;;;;5089762;28;20443;-49
2022/08/26 05:25:45;;;;;;;5.17;4.63;;;17.10;99.90;;;;;;5089664;28;20452;-49
2022/08/26 05:28:15;;;;;;;5.23;4.73;;;17.30;99.90;;;;;;5092523;28;20475;-48
2022/08/26 05:30:42;;;;;;;5.20;4.60;;;17.10;99.90;;;;;;5092712;28;20431;-49
2022/08/26 05:33:09;;;;;;;6.80;5.00;;;17.40;99.90;;;;;;5092904;28;21012;-50
2022/08/26 05:35:38;;;;;;;5.37;4.97;;;17.40;99.90;;;;;;5093282;28;20455;-49
2022/08/26 05:38:07;;;;;;;5.50;5.00;;;16.80;99.90;;;;;;5093691;28;20496;-50
2022/08/26 05:40:35;;;;;;;5.30;4.60;;;16.50;99.90;;;;;;5092935;28;20496;-49
2022/08/26 05:43:06;;;;;;;5.03;4.50;;;16.60;99.90;;;;;;5093562;28;20782;-49
2022/08/26 05:45:33;;;;;;;5.37;4.87;;;16.70;99.90;;;;;;5093470;28;20197;-51
2022/08/26 05:48:00;;;;;;;4.83;4.43;;;17.10;99.90;;;;;;5093202;28;21088;-49
2022/08/26 05:50:27;;;;;;;5.20;4.80;;;17.40;99.90;;;;;;5092737;28;20996;-49
2022/08/26 05:52:57;;;;;;;6.70;5.23;;;17.50;99.90;;;;;;5092274;28;21186;-51
2022/08/26 05:55:24;;;;;;;8.93;5.10;;;17.10;99.90;;;;;;5093417;28;20459;-49
2022/08/26 05:57:52;;;;;;;5.90;5.30;;;17.10;99.90;;;;;;5092112;28;20455;-49
2022/08/26 06:00:20;;;;;;;6.63;6.10;;;17.40;99.90;;;;;;5092314;28;20432;-49
2022/08/26 06:02:47;;;;;;;6.13;5.53;;;16.80;99.90;;;;;;5093261;28;20793;-49
2022/08/26 06:05:14;;;;;;;5.47;4.97;;;17.00;99.90;;;;;;5093185;28;20642;-49
2022/08/26 06:10:27;;;;;;;5.17;4.73;;;17.20;99.90;;;;;;5092241;28;20495;-49
2022/08/26 06:12:54;;;;;;;4.93;4.53;;;17.30;99.90;;;;;;5092987;28;20447;-50
2022/08/26 06:15:21;;;;;;;6.30;5.70;;;17.60;99.90;;;;;;5093176;28;20443;-50
2022/08/26 06:17:48;;;;;;;6.33;5.73;;;17.50;99.90;;;;;;5092702;28;20471;-49
2022/08/26 06:20:15;;;;;;;6.03;5.43;;;17.50;99.90;;;;;;5092124;28;20843;-49
2022/08/26 06:25:40;;;;;;;6.00;5.50;;;17.50;99.90;;;;;;5092729;28;20445;-48
2022/08/26 06:28:08;;;;;;;7.00;5.80;;;17.70;99.90;;;;;;5092751;28;20824;-49
2022/08/26 06:30:39;;;;;;;7.50;5.37;;;17.80;99.90;;;;;;5091919;28;20435;-49
2022/08/26 06:33:06;;;;;;;8.77;6.30;;;17.70;99.90;;;;;;5092731;28;20440;-49
2022/08/26 06:35:38;;;;;;;6.20;5.70;;;17.60;99.90;;;;;;5092483;28;20494;-49
2022/08/26 06:38:06;;;;;;;6.20;5.60;;;17.50;99.90;;;;;;5091997;28;20781;-51
2022/08/26 06:40:40;;;;;;;5.43;5.03;;;17.30;99.90;;;;;;5091711;28;20200;-50
2022/08/26 06:43:07;;;;;;;6.77;5.30;;;17.70;99.90;;;;;;5092563;28;20543;-51
2022/08/26 06:45:34;;;;;;;6.27;5.57;;;17.80;99.90;;;;;;5093223;28;20501;-50
2022/08/26 06:48:01;;;;;;;6.67;5.97;;;17.90;99.90;;;;;;5092794;28;20559;-51
2022/08/26 06:50:28;;;;;;;7.40;5.63;;;18.00;99.90;;;;;;5092137;28;20944;-50
2022/08/26 06:52:55;;;;;;;8.60;6.20;;;18.10;99.90;;;;;;5092575;28;20508;-51
2022/08/26 06:55:22;;;;;;;8.40;6.33;;;18.10;99.90;;;;;;5093388;28;20451;-51
2022/08/26 06:57:51;;;;;;;7.07;6.37;;;18.00;99.90;;;;;;5092925;28;20963;-50
2022/08/26 07:00:19;;;;;;;7.73;6.93;;;18.10;99.90;;;;;;5092023;28;20536;-51
2022/08/26 07:02:46;;;;;;;8.77;7.03;;;18.20;99.90;;;;;;5092765;28;20485;-52
2022/08/26 07:05:13;;;;;;;9.30;7.23;;;18.20;99.90;;;;;;5092512;28;20501;-50
2022/08/26 07:07:40;;;;;;;6.90;6.10;;;18.00;99.90;;;;;;5092041;28;20472;-51
2022/08/26 07:10:08;;;;;;;6.87;5.53;;;18.20;99.90;;;;;;5091326;28;21014;-50
2022/08/26 07:12:36;;;;;;;6.20;5.70;;;18.50;99.90;;;;;;5091935;28;20428;-50
2022/08/26 07:15:05;;;;;;;7.00;5.80;;;18.60;99.90;;;;;;5091800;28;20655;-50
2022/08/26 07:17:32;;;;;;;6.80;6.30;;;18.80;99.90;;;;;;5091054;28;21008;-50
2022/08/26 07:19:59;;;;;;;6.97;6.27;;;18.70;99.90;;;;;;5091122;28;21014;-50
2022/08/26 07:22:26;;;;;;;7.33;6.70;;;18.60;99.90;;;;;;5091306;28;20505;-51
2022/08/26 07:24:53;;;;;;;6.67;6.07;;;18.60;99.90;;;;;;5091729;28;20439;-51
2022/08/26 07:27:20;;;;;;;6.63;6.00;;;18.40;99.90;;;;;;5091562;28;20480;-51
2022/08/26 07:29:47;;;;;;;7.30;6.80;;;18.40;99.90;;;;;;5090751;28;20485;-51
2022/08/26 07:32:18;;;;;;;6.73;6.03;;;18.40;99.90;;;;;;5091203;28;20867;-51
2022/08/26 07:34:45;;;;;;;6.63;6.00;;;18.50;99.90;;;;;;5091483;28;20462;-51
2022/08/26 07:37:12;;;;;;;6.40;5.50;;;18.60;99.90;;;;;;5091344;28;20501;-51
2022/08/26 07:39:41;;;;;;;4.93;4.43;;;18.60;99.90;;;;;;5090598;28;20450;-50
2022/08/26 07:42:11;;;;;;;5.22;4.72;;;18.60;99.90;;;;;;5091250;28;20432;-50
2022/08/26 07:44:39;;;;;;;7.37;5.93;;;18.90;99.90;;;;;;5091191;28;20200;-50
2022/08/26 07:47:07;;;;;;;7.93;6.80;;;19.00;99.90;;;;;;5091139;28;20468;-50
2022/08/26 07:49:35;;;;;;;6.40;5.80;;;19.10;99.90;;;;;;5089906;28;20431;-51
2022/08/26 07:52:03;;;;;;;8.43;7.10;;;19.20;99.90;;;;;;5089771;28;20460;-50
2022/08/26 07:54:30;;;;;;;8.60;6.93;;;19.00;99.90;;;;;;5091120;28;20516;-50
2022/08/26 07:56:57;;;;;;;5.60;5.10;;;19.20;99.90;;;;;;5090359;28;20462;-50
2022/08/26 07:59:25;;;;;;;6.50;5.43;;;19.20;99.90;;;;;;5090294;28;20451;-50
2022/08/26 08:01:52;;;;;;;6.13;5.63;;;19.00;99.90;;;;;;5091359;28;20452;-50
2022/08/26 08:04:19;;;;;;;5.87;5.37;;;18.90;99.90;;;;;;5090939;28;20936;-51
2022/08/26 08:06:47;;;;;;;5.10;4.70;;;18.90;99.90;;;;;;5090452;28;20436;-51
2022/08/26 08:09:15;;;;;;;9.60;5.80;;;19.00;99.90;;;;;;5089869;28;21069;-50
2022/08/26 08:11:44;;;;;;;6.47;5.30;;;19.00;99.90;;;;;;5090780;28;20447;-50
2022/08/26 08:14:11;;;;;;;5.23;4.73;;;19.10;99.90;;;;;;5090758;28;20447;-51
2022/08/26 08:16:38;;;;;;;5.00;4.60;;;19.20;99.90;;;;;;5090167;28;20560;-50
2022/08/26 08:19:05;;;;;;;4.80;4.30;;;19.30;99.90;;;;;;5089827;28;20504;-51
2022/08/26 08:21:32;;;;;;;5.00;4.50;;;19.40;99.90;;;;;;5090529;28;20993;-50
2022/08/26 08:24:00;;;;;;;5.77;5.17;;;19.60;99.90;;;;;;5090653;28;20451;-50
2022/08/26 08:26:28;;;;;;;6.73;5.57;;;19.70;99.90;;;;;;5090463;28;20459;-51
2022/08/26 08:28:56;;;;;;;5.80;5.30;;;19.90;99.90;;;;;;5089620;28;20584;-50
2022/08/26 08:31:26;;;;;;;7.17;5.10;;;20.00;99.90;;;;;;5090265;28;20966;-50
2022/08/26 08:33:53;;;;;;;8.43;5.70;;;20.00;99.90;;;;;;5090566;28;20805;-50
2022/08/26 08:36:21;;;;;;;6.85;4.63;;;20.00;99.90;;;;;;5090245;28;20857;-50
2022/08/26 08:38:49;;;;;;;5.30;4.90;;;20.10;99.90;;;;;;5089555;28;20663;-51
2022/08/26 08:41:30;;;;;;;5.90;5.37;;;20.20;99.90;;;;;;5090684;28;20448;-51
2022/08/26 08:44:00;;;;;;;6.03;5.53;;;20.40;99.90;;;;;;5090131;28;20417;-49
2022/08/26 08:46:28;;;;;;;6.10;5.53;;;20.50;99.90;;;;;;5090446;28;20458;-50
2022/08/26 08:48:58;;;;;;;5.17;4.67;;;20.70;99.90;;;;;;5089397;28;20487;-50
2022/08/26 08:51:34;;;;;;;5.00;4.47;;;20.70;99.90;;;;;;5090139;28;20456;-49
2022/08/26 08:54:02;;;;;;;5.50;4.90;;;20.70;99.90;;;;;;5089115;28;20200;-50
2022/08/26 08:56:35;;;;;;;5.28;4.78;;;20.60;99.90;;;;;;5089919;28;20511;-49
2022/08/26 08:59:12;;;;;;;9.10;5.17;;;20.60;99.90;;;;;;5089426;28;20444;-51
2022/08/26 09:01:53;;;;;;;5.70;5.10;;;20.70;99.90;;;;;;5089640;28;20822;-50
2022/08/26 09:04:56;;;;;;;6.77;5.77;;;20.90;99.90;;;;;;5090462;28;20443;-50
2022/08/26 09:07:26;;;;;;;6.40;5.80;;;21.10;99.90;;;;;;5047215;28;20468;-49
2022/08/26 09:09:57;;;;;;;5.93;5.30;;;21.30;99.90;;;;;;5081681;28;20479;-49
2022/08/26 09:12:29;;;;;;;7.13;5.30;;;21.40;99.90;;;;;;5089832;28;20529;-50
2022/08/26 09:15:01;;;;;;;5.60;5.10;;;21.50;99.90;;;;;;5089831;28;21253;-49
2022/08/26 09:17:37;;;;;;;5.90;5.30;;;21.60;99.90;;;;;;5089062;28;20471;-49
2022/08/26 09:20:14;;;;;;;5.50;5.00;;;21.80;99.90;;;;;;5089127;28;20456;-50
2022/08/26 09:22:41;;;;;;;7.43;5.23;;;21.80;99.90;;;;;;5089767;28;20512;-50
2022/08/26 09:25:11;;;;;;;6.00;5.40;;;21.80;99.90;;;;;;5089641;28;20444;-49
2022/08/26 09:27:44;;;;;;;5.63;4.90;;;21.90;99.90;;;;;;5089588;28;20460;-50
2022/08/26 09:30:14;;;;;;;5.47;4.73;;;21.90;99.90;;;;;;5089109;28;20868;-50
2022/08/26 09:32:41;;;;;;;6.50;5.90;;;22.20;99.90;;;;;;5089604;28;20447;-50
2022/08/26 09:35:23;;;;;;;5.30;4.80;;;22.40;99.90;;;;;;5089567;28;20438;-49
2022/08/26 09:37:50;;;;;;;5.23;4.77;;;22.40;99.90;;;;;;5089493;28;20451;-50
2022/08/26 09:40:33;;;;;;;5.33;4.93;;;22.40;99.90;;;;;;5088996;28;20496;-50
2022/08/26 09:43:10;;;;;;;5.63;5.15;;;22.60;99.90;;;;;;5089578;28;20451;-51
2022/08/26 09:45:39;;;;;;;5.20;4.70;;;23.10;99.90;;;;;;5089669;28;20221;-49
2022/08/26 09:48:06;;;;;;;5.77;5.30;;;23.00;99.90;;;;;;5089342;28;20611;-50
2022/08/26 09:50:36;;;;;;;16.20;7.28;;;23.00;99.90;;;;;;5088967;28;20851;-49
2022/08/26 09:53:14;;;;;;;10.03;7.03;;;23.20;99.90;;;;;;5088589;28;20201;-50
2022/08/26 09:55:43;;;;;;;6.33;5.83;;;23.30;99.90;;;;;;5089548;28;20500;-50
2022/08/26 09:58:15;;;;;;;5.87;5.30;;;23.30;99.90;;;;;;5089173;28;20435;-50
2022/08/26 10:00:52;;;;;;;5.37;4.97;;;23.20;99.90;;;;;;5088700;28;20428;-50
2022/08/26 10:03:25;;;;;;;5.67;5.23;;;23.30;99.90;;;;;;5089377;28;20804;-50
2022/08/26 10:05:58;;;;;;;5.23;4.73;;;23.40;99.90;;;;;;5089443;28;20454;-51
2022/08/26 10:08:31;;;;;;;6.03;5.43;;;23.70;99.90;;;;;;5089345;28;20546;-49
2022/08/26 10:11:00;;;;;;;6.30;4.97;;;23.90;99.90;;;;;;5088302;28;20860;-50
2022/08/26 10:13:35;;;;;;;5.20;4.80;;;24.20;99.90;;;;;;5089900;28;20956;-50
2022/08/26 10:16:16;;;;;;;5.43;5.00;;;24.00;99.90;;;;;;5093163;28;20315;-51
2022/08/26 10:18:47;;;;;;;10.10;5.30;;;23.90;99.90;;;;;;5092420;28;20450;-49
2022/08/26 10:21:18;;;;;;;7.67;6.10;;;24.10;99.90;;;;;;5093186;28;20463;-49
2022/08/26 10:23:49;;;;;;;5.90;5.40;;;24.30;99.90;;;;;;5092172;28;20904;-49
2022/08/26 10:26:22;;;;;;;5.07;4.67;;;24.70;99.90;;;;;;5092820;28;20520;-49
2022/08/26 10:28:56;;;;;;;7.30;5.40;;;24.50;99.90;;;;;;5091799;28;20532;-51
2022/08/26 10:31:28;;;;;;;10.40;5.47;;;24.70;99.90;;;;;;5092338;28;20432;-50
2022/08/26 10:33:57;;;;;;;5.93;5.43;;;24.80;99.90;;;;;;5081623;28;20452;-50
2022/08/26 10:39:28;;;;;;;6.50;5.87;;;24.60;99.90;;;;;;5039506;28;20434;-50
2022/08/26 10:42:00;;;;;;;6.67;6.07;;;24.90;99.90;;;;;;5070360;28;20657;-50
2022/08/26 10:44:33;;;;;;;6.20;5.07;;;24.90;99.90;;;;;;5082256;28;20442;-51
2022/08/26 10:47:09;;;;;;;9.30;5.33;;;25.00;99.90;;;;;;5080980;28;20509;-49
2022/08/26 10:49:37;;;;;;;5.37;4.87;;;24.90;99.90;;;;;;5082695;28;20470;-50
2022/08/26 10:52:11;;;;;;;5.20;4.10;;;24.90;99.90;;;;;;5090732;28;20509;-51
2022/08/26 10:54:43;;;;;;;4.60;4.23;;;25.30;99.90;;;;;;5092561;28;20993;-51
2022/08/26 10:57:15;;;;;;;4.10;3.80;;;25.20;99.90;;;;;;5092244;28;20468;-51
2022/08/26 11:01:40;;;;;;;5.40;5.00;;;25.20;99.90;;;;;;5091508;28;20448;-50
2022/08/26 11:02:51;;;;;;;5.03;4.63;;;25.70;99.90;;;;;;5091802;28;20440;-50
2022/08/26 11:05:21;;;;;;;5.15;4.65;;;25.40;99.90;;;;;;5090698;28;20501;-50
2022/08/26 11:07:51;;;;;;;5.33;4.43;;;25.40;99.90;;;;;;5091802;28;20221;-50
2022/08/26 11:10:53;;;;;;;6.10;4.43;;;25.80;99.90;;;;;;5091718;28;20503;-50
2022/08/26 11:13:40;;;;;;;4.70;4.20;;;25.60;99.90;;;;;;5092609;28;20423;-51
2022/08/26 11:16:09;;;;;;;5.27;4.87;;;25.70;99.90;;;;;;5091614;28;20992;-51
2022/08/26 11:18:47;;;;;;;4.33;4.03;;;25.60;99.90;;;;;;5090509;28;20440;-51
2022/08/26 11:22:01;;;;;;;6.00;4.50;;;26.10;99.90;;;;;;5091805;28;20941;-51
2022/08/26 11:24:46;;;;;;;4.83;4.43;;;25.80;99.90;;;;;;5091608;28;20439;-51
2022/08/26 11:27:52;;;;;;;5.00;4.60;;;25.40;99.90;;;;;;5091403;28;20448;-51
2022/08/26 11:30:41;;;;;;;5.53;4.40;;;25.60;99.90;;;;;;5090964;28;20528;-51
2022/08/26 11:33:10;;;;;;;5.47;4.97;;;26.10;99.90;;;;;;5091371;28;20905;-52
2022/08/26 11:35:49;;;;;;;4.60;4.20;;;26.00;99.90;;;;;;5091325;28;20460;-52
2022/08/26 11:38:21;;;;;;;4.47;4.07;;;26.30;99.90;;;;;;5091429;28;20443;-51
2022/08/26 11:40:59;;;;;;;3.90;3.60;;;26.50;99.90;;;;;;5090710;28;20232;-51
2022/08/26 11:43:29;;;;;;;4.90;4.00;;;26.40;99.40;;;;;;5091256;28;20431;-51
2022/08/26 11:46:01;;;;;;;4.80;4.07;;;26.10;98.40;;;;;;5091414;28;20456;-52
2022/08/26 11:48:32;;;;;;;4.80;4.13;;;26.10;99.80;;;;;;5091566;28;20474;-51
2022/08/26 11:51:01;;;;;;;4.27;3.90;;;25.90;99.90;;;;;;5090744;28;20451;-51
2022/08/26 11:53:31;;;;;;;4.37;3.73;;;25.90;99.60;;;;;;5090043;28;20424;-51
2022/08/26 11:56:01;;;;;;;7.67;4.43;;;25.90;98.60;;;;;;5091104;28;20540;-51
2022/08/26 11:58:30;;;;;;;5.30;4.00;;;26.00;99.90;;;;;;5091120;28;20451;-52
2022/08/26 12:01:00;;;;;;;4.57;4.17;;;26.20;99.90;;;;;;5090408;28;20432;-51
2022/08/26 12:03:39;;;;;;;4.00;3.70;;;26.50;99.90;;;;;;5090369;28;20437;-52
2022/08/26 12:06:12;;;;;;;4.40;3.93;;;26.50;99.90;;;;;;5090995;28;20868;-51
2022/08/26 12:08:42;;;;;;;3.27;3.07;;;26.50;96.80;;;;;;5090460;28;20854;-51
2022/08/26 12:11:12;;;;;;;12.13;5.47;;;26.50;97.30;;;;;;5090559;28;20452;-51
2022/08/26 12:13:41;;;;;;;9.15;4.00;;;26.70;99.90;;;;;;5090703;28;20439;-51
2022/08/26 12:16:09;;;;;;;29.40;5.43;;;26.60;98.70;;;;;;5090413;28;20232;-51
2022/08/26 12:18:38;;;;;;;7.73;4.00;;;26.70;96.70;;;;;;5090280;28;20446;-51
2022/08/26 12:21:14;;;;;;;3.90;3.20;;;26.60;96.90;;;;;;5090039;28;20480;-51
2022/08/26 12:23:44;;;;;;;5.30;4.80;;;26.50;95.70;;;;;;5090586;28;20447;-51
2022/08/26 12:26:19;;;;;;;4.50;3.67;;;26.70;99.20;;;;;;5090527;28;20464;-51
2022/08/26 12:28:51;;;;;;;6.20;3.57;;;26.70;98.10;;;;;;5089857;28;20504;-48
2022/08/26 12:31:25;;;;;;;9.50;3.90;;;26.80;96.60;;;;;;5090281;28;20428;-52
2022/08/26 12:33:55;;;;;;;3.70;3.33;;;26.70;94.60;;;;;;5090371;28;20488;-51
2022/08/26 12:36:26;;;;;;;4.37;3.97;;;26.70;95.10;;;;;;5089813;28;20486;-51
2022/08/26 12:38:54;;;;;;;7.53;3.90;;;26.70;97.80;;;;;;5089680;28;20944;-52
2022/08/26 12:41:43;;;;;;;5.93;3.77;;;26.80;94.30;;;;;;5090141;28;20878;-52
2022/08/26 12:44:35;;;;;;;3.73;3.43;;;26.60;95.10;;;;;;5090190;28;20431;-50
2022/08/26 12:47:08;;;;;;;4.30;3.90;;;26.40;96.90;;;;;;5090154;28;20447;-51
2022/08/26 12:49:38;;;;;;;3.77;3.33;;;26.20;94.70;;;;;;5089418;28;20471;-51
2022/08/26 12:52:07;;;;;;;6.27;4.17;;;26.20;96.40;;;;;;5089153;28;20524;-51
2022/08/26 12:57:27;;;;;;;4.50;4.10;;;26.10;97.10;;;;;;5089982;28;20438;-50
2022/08/26 13:00:15;;;;;;;29.70;8.50;;;26.20;95.50;;;;;;5089731;28;20439;-51
2022/08/26 13:02:42;;;;;;;10.60;5.60;;;26.20;96.20;;;;;;5089913;28;20452;-51
2022/08/26 13:05:20;;;;;;;16.83;6.10;;;26.20;95.60;;;;;;5089320;28;20905;-51
2022/08/26 13:08:09;;;;;;;17.27;6.20;;;26.20;96.40;;;;;;5089970;28;20452;-51
2022/08/26 13:10:39;;;;;;;11.03;5.00;;;26.20;98.20;;;;;;5089339;28;21022;-51
2022/08/26 13:13:06;;;;;;;6.50;4.83;;;26.20;98.10;;;;;;5089789;28;20432;-51
2022/08/26 13:15:33;;;;;;;6.63;4.20;;;26.30;98.90;;;;;;5089920;28;20497;-51